sensor_id;sensor_type;location;lat;lon;timestamp;P1;durP1;ratioP1;P2;durP2;ratioP2
1685;SDS011;840;47.980;7.830;2024-01-10T00:02:20;33.87;;;19.40;;
1685;SDS011;840;47.980;7.830;2024-01-10T00:04:46;29.73;;;19.90;;
1685;SDS011;840;47.980;7.830;2024-01-10T00:07:14;25.58;;;17.63;;
1685;SDS011;840;47.980;7.830;2024-01-10T00:09:41;29.73;;;18.88;;
1685;SDS011;840;47.980;7.830;2024-01-10T00:12:08;32.67;;;20.35;;
1685;SDS011;840;47.980;7.830;2024-01-10T00:14:34;35.67;;;20.85;;
1685;SDS011;840;47.980;7.830;2024-01-10T00:17:01;31.33;;;20.55;;
1685;SDS011;840;47.980;7.830;2024-01-10T00:19:28;28.00;;;19.75;;
1685;SDS011;840;47.980;7.830;2024-01-10T00:21:55;24.60;;;17.40;;
1685;SDS011;840;47.980;7.830;2024-01-10T00:24:23;33.40;;;21.27;;
1685;SDS011;840;47.980;7.830;2024-01-10T00:26:49;26.95;;;18.60;;
1685;SDS011;840;47.980;7.830;2024-01-10T00:29:16;27.90;;;19.42;;
1685;SDS011;840;47.980;7.830;2024-01-10T00:31:42;24.55;;;18.80;;
1685;SDS011;840;47.980;7.830;2024-01-10T00:34:09;31.27;;;20.38;;
1685;SDS011;840;47.980;7.830;2024-01-10T00:36:36;27.95;;;20.45;;
1685;SDS011;840;47.980;7.830;2024-01-10T00:39:03;32.92;;;21.25;;
1685;SDS011;840;47.980;7.830;2024-01-10T00:41:31;21.77;;;18.77;;
1685;SDS011;840;47.980;7.830;2024-01-10T00:43:58;26.75;;;20.42;;
1685;SDS011;840;47.980;7.830;2024-01-10T00:46:24;30.80;;;18.98;;
1685;SDS011;840;47.980;7.830;2024-01-10T00:48:51;29.60;;;18.50;;
1685;SDS011;840;47.980;7.830;2024-01-10T00:51:18;24.60;;;18.35;;
1685;SDS011;840;47.980;7.830;2024-01-10T00:53:44;31.23;;;17.05;;
1685;SDS011;840;47.980;7.830;2024-01-10T00:56:11;26.42;;;18.63;;
1685;SDS011;840;47.980;7.830;2024-01-10T00:58:39;30.58;;;19.92;;
1685;SDS011;840;47.980;7.830;2024-01-10T01:01:06;29.65;;;17.80;;
1685;SDS011;840;47.980;7.830;2024-01-10T01:03:33;28.67;;;20.02;;
1685;SDS011;840;47.980;7.830;2024-01-10T01:06:01;28.13;;;19.23;;
1685;SDS011;840;47.980;7.830;2024-01-10T01:08:28;27.27;;;18.33;;
1685;SDS011;840;47.980;7.830;2024-01-10T01:10:54;20.88;;;17.13;;
1685;SDS011;840;47.980;7.830;2024-01-10T01:13:21;27.02;;;18.23;;
1685;SDS011;840;47.980;7.830;2024-01-10T01:15:49;31.40;;;19.30;;
1685;SDS011;840;47.980;7.830;2024-01-10T01:18:16;24.02;;;18.35;;
1685;SDS011;840;47.980;7.830;2024-01-10T01:20:44;29.52;;;19.27;;
1685;SDS011;840;47.980;7.830;2024-01-10T01:23:13;33.97;;;19.67;;
1685;SDS011;840;47.980;7.830;2024-01-10T01:25:40;28.67;;;18.57;;
1685;SDS011;840;47.980;7.830;2024-01-10T01:28:07;27.67;;;20.20;;
1685;SDS011;840;47.980;7.830;2024-01-10T01:30:34;31.40;;;19.52;;
1685;SDS011;840;47.980;7.830;2024-01-10T01:33:02;28.67;;;18.90;;
1685;SDS011;840;47.980;7.830;2024-01-10T01:35:29;30.50;;;19.40;;
1685;SDS011;840;47.980;7.830;2024-01-10T01:37:56;24.02;;;17.27;;
1685;SDS011;840;47.980;7.830;2024-01-10T01:40:23;23.40;;;17.60;;
1685;SDS011;840;47.980;7.830;2024-01-10T01:42:49;26.27;;;19.30;;
1685;SDS011;840;47.980;7.830;2024-01-10T01:45:16;22.70;;;17.85;;
1685;SDS011;840;47.980;7.830;2024-01-10T01:47:42;34.63;;;19.57;;
1685;SDS011;840;47.980;7.830;2024-01-10T01:50:11;33.40;;;19.10;;
1685;SDS011;840;47.980;7.830;2024-01-10T01:52:38;27.42;;;19.20;;
1685;SDS011;840;47.980;7.830;2024-01-10T01:55:05;27.63;;;17.70;;
1685;SDS011;840;47.980;7.830;2024-01-10T01:57:33;31.52;;;20.05;;
1685;SDS011;840;47.980;7.830;2024-01-10T02:00:00;32.33;;;20.38;;
1685;SDS011;840;47.980;7.830;2024-01-10T02:02:28;34.55;;;19.67;;
1685;SDS011;840;47.980;7.830;2024-01-10T02:04:56;27.15;;;18.23;;
1685;SDS011;840;47.980;7.830;2024-01-10T02:07:25;26.13;;;18.73;;
1685;SDS011;840;47.980;7.830;2024-01-10T02:09:52;29.23;;;18.60;;
1685;SDS011;840;47.980;7.830;2024-01-10T02:12:19;29.15;;;21.40;;
1685;SDS011;840;47.980;7.830;2024-01-10T02:14:46;35.55;;;20.10;;
1685;SDS011;840;47.980;7.830;2024-01-10T02:17:12;30.10;;;19.90;;
1685;SDS011;840;47.980;7.830;2024-01-10T02:19:40;27.65;;;20.02;;
1685;SDS011;840;47.980;7.830;2024-01-10T02:22:07;29.63;;;18.88;;
1685;SDS011;840;47.980;7.830;2024-01-10T02:24:37;29.73;;;18.50;;
1685;SDS011;840;47.980;7.830;2024-01-10T02:27:05;26.70;;;18.15;;
1685;SDS011;840;47.980;7.830;2024-01-10T02:29:33;26.57;;;20.23;;
1685;SDS011;840;47.980;7.830;2024-01-10T02:32:00;30.58;;;20.02;;
1685;SDS011;840;47.980;7.830;2024-01-10T02:34:27;28.13;;;19.60;;
1685;SDS011;840;47.980;7.830;2024-01-10T02:36:56;36.80;;;22.77;;
1685;SDS011;840;47.980;7.830;2024-01-10T02:39:23;31.33;;;19.88;;
1685;SDS011;840;47.980;7.830;2024-01-10T02:41:49;37.15;;;22.38;;
1685;SDS011;840;47.980;7.830;2024-01-10T02:44:17;26.95;;;20.77;;
1685;SDS011;840;47.980;7.830;2024-01-10T02:46:44;28.83;;;18.05;;
1685;SDS011;840;47.980;7.830;2024-01-10T02:49:11;26.73;;;19.02;;
1685;SDS011;840;47.980;7.830;2024-01-10T02:51:38;29.40;;;20.30;;
1685;SDS011;840;47.980;7.830;2024-01-10T02:54:05;23.02;;;19.65;;
1685;SDS011;840;47.980;7.830;2024-01-10T02:56:31;27.30;;;19.10;;
1685;SDS011;840;47.980;7.830;2024-01-10T02:58:58;28.33;;;19.45;;
1685;SDS011;840;47.980;7.830;2024-01-10T03:01:26;39.17;;;21.40;;
1685;SDS011;840;47.980;7.830;2024-01-10T03:03:53;29.25;;;20.67;;
1685;SDS011;840;47.980;7.830;2024-01-10T03:06:20;32.35;;;21.35;;
1685;SDS011;840;47.980;7.830;2024-01-10T03:08:46;27.75;;;19.38;;
1685;SDS011;840;47.980;7.830;2024-01-10T03:11:13;31.33;;;19.95;;
1685;SDS011;840;47.980;7.830;2024-01-10T03:13:40;36.40;;;21.40;;
1685;SDS011;840;47.980;7.830;2024-01-10T03:16:09;32.80;;;21.77;;
1685;SDS011;840;47.980;7.830;2024-01-10T03:18:37;33.45;;;20.67;;
1685;SDS011;840;47.980;7.830;2024-01-10T03:21:04;36.78;;;21.15;;
1685;SDS011;840;47.980;7.830;2024-01-10T03:23:31;36.33;;;21.40;;
1685;SDS011;840;47.980;7.830;2024-01-10T03:25:57;31.40;;;21.08;;
1685;SDS011;840;47.980;7.830;2024-01-10T03:28:24;35.20;;;18.23;;
1685;SDS011;840;47.980;7.830;2024-01-10T03:30:51;30.88;;;21.85;;
1685;SDS011;840;47.980;7.830;2024-01-10T03:33:17;34.47;;;21.20;;
1685;SDS011;840;47.980;7.830;2024-01-10T03:35:46;27.00;;;19.92;;
1685;SDS011;840;47.980;7.830;2024-01-10T03:38:12;31.17;;;19.85;;
1685;SDS011;840;47.980;7.830;2024-01-10T03:40:41;29.58;;;20.33;;
1685;SDS011;840;47.980;7.830;2024-01-10T03:43:07;29.55;;;21.73;;
1685;SDS011;840;47.980;7.830;2024-01-10T03:45:35;32.50;;;21.25;;
1685;SDS011;840;47.980;7.830;2024-01-10T03:48:01;31.50;;;21.20;;
1685;SDS011;840;47.980;7.830;2024-01-10T03:50:28;40.28;;;23.45;;
1685;SDS011;840;47.980;7.830;2024-01-10T03:52:56;30.25;;;21.55;;
1685;SDS011;840;47.980;7.830;2024-01-10T03:55:23;36.28;;;22.00;;
1685;SDS011;840;47.980;7.830;2024-01-10T03:57:49;32.55;;;21.92;;
1685;SDS011;840;47.980;7.830;2024-01-10T04:00:17;32.97;;;20.50;;
1685;SDS011;840;47.980;7.830;2024-01-10T04:02:43;35.00;;;21.30;;
1685;SDS011;840;47.980;7.830;2024-01-10T04:05:10;31.60;;;21.00;;
1685;SDS011;840;47.980;7.830;2024-01-10T04:07:39;29.08;;;20.88;;
1685;SDS011;840;47.980;7.830;2024-01-10T04:10:08;28.10;;;21.08;;
1685;SDS011;840;47.980;7.830;2024-01-10T04:12:35;34.75;;;20.60;;
1685;SDS011;840;47.980;7.830;2024-01-10T04:15:02;31.65;;;22.13;;
1685;SDS011;840;47.980;7.830;2024-01-10T04:17:30;34.25;;;22.63;;
1685;SDS011;840;47.980;7.830;2024-01-10T04:19:57;32.22;;;19.88;;
1685;SDS011;840;47.980;7.830;2024-01-10T04:22:24;38.47;;;23.75;;
1685;SDS011;840;47.980;7.830;2024-01-10T04:24:51;34.30;;;20.52;;
1685;SDS011;840;47.980;7.830;2024-01-10T04:27:19;30.92;;;21.95;;
1685;SDS011;840;47.980;7.830;2024-01-10T04:29:45;33.47;;;21.13;;
1685;SDS011;840;47.980;7.830;2024-01-10T04:32:12;33.08;;;21.63;;
1685;SDS011;840;47.980;7.830;2024-01-10T04:34:39;33.60;;;21.27;;
1685;SDS011;840;47.980;7.830;2024-01-10T04:37:06;43.00;;;25.10;;
1685;SDS011;840;47.980;7.830;2024-01-10T04:39:33;38.45;;;24.33;;
1685;SDS011;840;47.980;7.830;2024-01-10T04:42:00;33.67;;;21.85;;
1685;SDS011;840;47.980;7.830;2024-01-10T04:44:28;34.38;;;20.73;;
1685;SDS011;840;47.980;7.830;2024-01-10T04:46:55;34.03;;;23.38;;
1685;SDS011;840;47.980;7.830;2024-01-10T04:49:22;41.15;;;21.83;;
1685;SDS011;840;47.980;7.830;2024-01-10T04:51:49;37.83;;;19.75;;
1685;SDS011;840;47.980;7.830;2024-01-10T04:54:16;41.78;;;21.35;;
1685;SDS011;840;47.980;7.830;2024-01-10T04:56:43;35.10;;;20.83;;
1685;SDS011;840;47.980;7.830;2024-01-10T04:59:09;36.28;;;21.55;;
1685;SDS011;840;47.980;7.830;2024-01-10T05:01:38;37.03;;;22.63;;
1685;SDS011;840;47.980;7.830;2024-01-10T05:04:04;32.80;;;22.13;;
1685;SDS011;840;47.980;7.830;2024-01-10T05:06:31;30.65;;;20.83;;
1685;SDS011;840;47.980;7.830;2024-01-10T05:08:58;29.80;;;18.30;;
1685;SDS011;840;47.980;7.830;2024-01-10T05:11:25;41.85;;;21.17;;
1685;SDS011;840;47.980;7.830;2024-01-10T05:13:53;38.95;;;22.58;;
1685;SDS011;840;47.980;7.830;2024-01-10T05:16:19;26.75;;;19.48;;
1685;SDS011;840;47.980;7.830;2024-01-10T05:18:48;30.52;;;20.92;;
1685;SDS011;840;47.980;7.830;2024-01-10T05:21:14;31.40;;;21.23;;
1685;SDS011;840;47.980;7.830;2024-01-10T05:23:41;34.53;;;20.67;;
1685;SDS011;840;47.980;7.830;2024-01-10T05:26:08;36.80;;;21.45;;
1685;SDS011;840;47.980;7.830;2024-01-10T05:28:35;31.98;;;20.15;;
1685;SDS011;840;47.980;7.830;2024-01-10T05:31:02;32.83;;;19.20;;
1685;SDS011;840;47.980;7.830;2024-01-10T05:33:29;34.95;;;23.48;;
1685;SDS011;840;47.980;7.830;2024-01-10T05:35:58;35.55;;;22.23;;
1685;SDS011;840;47.980;7.830;2024-01-10T05:38:25;29.80;;;21.33;;
1685;SDS011;840;47.980;7.830;2024-01-10T05:40:52;30.97;;;20.17;;
1685;SDS011;840;47.980;7.830;2024-01-10T05:43:18;31.65;;;22.67;;
1685;SDS011;840;47.980;7.830;2024-01-10T05:45:46;44.55;;;29.30;;
1685;SDS011;840;47.980;7.830;2024-01-10T05:48:13;33.70;;;22.07;;
1685;SDS011;840;47.980;7.830;2024-01-10T05:50:40;30.45;;;21.25;;
1685;SDS011;840;47.980;7.830;2024-01-10T05:53:08;38.83;;;22.60;;
1685;SDS011;840;47.980;7.830;2024-01-10T05:55:35;27.85;;;20.33;;
1685;SDS011;840;47.980;7.830;2024-01-10T05:58:02;34.83;;;22.27;;
1685;SDS011;840;47.980;7.830;2024-01-10T06:00:29;36.08;;;21.85;;
1685;SDS011;840;47.980;7.830;2024-01-10T06:02:57;27.63;;;20.17;;
1685;SDS011;840;47.980;7.830;2024-01-10T06:05:24;40.10;;;23.92;;
1685;SDS011;840;47.980;7.830;2024-01-10T06:07:51;34.80;;;21.17;;
1685;SDS011;840;47.980;7.830;2024-01-10T06:10:19;38.30;;;21.70;;
1685;SDS011;840;47.980;7.830;2024-01-10T06:12:45;34.53;;;20.83;;
1685;SDS011;840;47.980;7.830;2024-01-10T06:15:12;36.40;;;20.33;;
1685;SDS011;840;47.980;7.830;2024-01-10T06:17:39;36.78;;;21.27;;
1685;SDS011;840;47.980;7.830;2024-01-10T06:20:06;38.90;;;20.63;;
1685;SDS011;840;47.980;7.830;2024-01-10T06:22:34;33.58;;;19.70;;
1685;SDS011;840;47.980;7.830;2024-01-10T06:25:00;34.22;;;20.95;;
1685;SDS011;840;47.980;7.830;2024-01-10T06:27:29;41.00;;;27.88;;
1685;SDS011;840;47.980;7.830;2024-01-10T06:29:56;41.63;;;25.60;;
1685;SDS011;840;47.980;7.830;2024-01-10T06:32:22;35.13;;;23.07;;
1685;SDS011;840;47.980;7.830;2024-01-10T06:34:49;33.22;;;20.58;;
1685;SDS011;840;47.980;7.830;2024-01-10T06:37:16;39.17;;;24.00;;
1685;SDS011;840;47.980;7.830;2024-01-10T06:39:42;38.38;;;23.30;;
1685;SDS011;840;47.980;7.830;2024-01-10T06:42:09;31.77;;;21.55;;
1685;SDS011;840;47.980;7.830;2024-01-10T06:44:38;28.10;;;22.23;;
1685;SDS011;840;47.980;7.830;2024-01-10T06:47:05;33.70;;;20.83;;
1685;SDS011;840;47.980;7.830;2024-01-10T06:49:32;30.77;;;21.85;;
1685;SDS011;840;47.980;7.830;2024-01-10T06:51:59;35.50;;;22.13;;
1685;SDS011;840;47.980;7.830;2024-01-10T06:54:26;34.72;;;19.58;;
1685;SDS011;840;47.980;7.830;2024-01-10T06:56:53;33.05;;;21.13;;
1685;SDS011;840;47.980;7.830;2024-01-10T06:59:19;32.63;;;20.13;;
1685;SDS011;840;47.980;7.830;2024-01-10T07:01:52;31.83;;;20.27;;
1685;SDS011;840;47.980;7.830;2024-01-10T07:04:18;29.48;;;22.60;;
1685;SDS011;840;47.980;7.830;2024-01-10T07:06:47;40.93;;;23.00;;
1685;SDS011;840;47.980;7.830;2024-01-10T07:09:14;29.05;;;21.10;;
1685;SDS011;840;47.980;7.830;2024-01-10T07:11:44;29.73;;;18.83;;
1685;SDS011;840;47.980;7.830;2024-01-10T07:14:12;37.25;;;23.45;;
1685;SDS011;840;47.980;7.830;2024-01-10T07:16:39;34.38;;;21.65;;
1685;SDS011;840;47.980;7.830;2024-01-10T07:19:08;32.55;;;22.67;;
1685;SDS011;840;47.980;7.830;2024-01-10T07:21:38;31.98;;;23.83;;
1685;SDS011;840;47.980;7.830;2024-01-10T07:24:05;41.78;;;28.90;;
1685;SDS011;840;47.980;7.830;2024-01-10T07:26:33;40.20;;;25.85;;
1685;SDS011;840;47.980;7.830;2024-01-10T07:29:00;38.22;;;23.35;;
1685;SDS011;840;47.980;7.830;2024-01-10T07:31:27;37.95;;;22.67;;
1685;SDS011;840;47.980;7.830;2024-01-10T07:33:57;43.70;;;22.05;;
1685;SDS011;840;47.980;7.830;2024-01-10T07:36:25;41.47;;;22.63;;
1685;SDS011;840;47.980;7.830;2024-01-10T07:38:52;32.78;;;21.85;;
1685;SDS011;840;47.980;7.830;2024-01-10T07:41:18;36.17;;;23.60;;
1685;SDS011;840;47.980;7.830;2024-01-10T07:43:45;32.60;;;21.25;;
1685;SDS011;840;47.980;7.830;2024-01-10T07:46:12;41.35;;;23.85;;
1685;SDS011;840;47.980;7.830;2024-01-10T07:48:38;32.15;;;22.83;;
1685;SDS011;840;47.980;7.830;2024-01-10T07:51:05;34.08;;;24.15;;
1685;SDS011;840;47.980;7.830;2024-01-10T07:53:33;31.70;;;22.10;;
1685;SDS011;840;47.980;7.830;2024-01-10T07:56:01;38.00;;;25.15;;
1685;SDS011;840;47.980;7.830;2024-01-10T07:58:27;43.22;;;28.13;;
1685;SDS011;840;47.980;7.830;2024-01-10T08:00:54;37.63;;;24.25;;
1685;SDS011;840;47.980;7.830;2024-01-10T08:03:21;42.88;;;23.27;;
1685;SDS011;840;47.980;7.830;2024-01-10T08:05:48;38.42;;;23.73;;
1685;SDS011;840;47.980;7.830;2024-01-10T08:08:14;39.42;;;23.63;;
1685;SDS011;840;47.980;7.830;2024-01-10T08:10:43;40.28;;;25.17;;
1685;SDS011;840;47.980;7.830;2024-01-10T08:13:10;40.60;;;26.15;;
1685;SDS011;840;47.980;7.830;2024-01-10T08:15:36;32.60;;;21.58;;
1685;SDS011;840;47.980;7.830;2024-01-10T08:18:03;35.65;;;22.27;;
1685;SDS011;840;47.980;7.830;2024-01-10T08:20:32;36.55;;;22.02;;
1685;SDS011;840;47.980;7.830;2024-01-10T08:22:59;37.08;;;23.20;;
1685;SDS011;840;47.980;7.830;2024-01-10T08:25:25;34.85;;;21.98;;
1685;SDS011;840;47.980;7.830;2024-01-10T08:27:54;33.08;;;23.55;;
1685;SDS011;840;47.980;7.830;2024-01-10T08:30:22;41.45;;;24.27;;
1685;SDS011;840;47.980;7.830;2024-01-10T08:32:50;34.97;;;23.63;;
1685;SDS011;840;47.980;7.830;2024-01-10T08:35:18;35.28;;;22.80;;
1685;SDS011;840;47.980;7.830;2024-01-10T08:37:45;43.33;;;25.65;;
1685;SDS011;840;47.980;7.830;2024-01-10T08:40:12;39.75;;;25.50;;
1685;SDS011;840;47.980;7.830;2024-01-10T08:42:40;43.25;;;25.42;;
1685;SDS011;840;47.980;7.830;2024-01-10T08:45:09;32.63;;;21.60;;
1685;SDS011;840;47.980;7.830;2024-01-10T08:47:36;32.45;;;23.02;;
1685;SDS011;840;47.980;7.830;2024-01-10T08:50:03;29.50;;;21.25;;
1685;SDS011;840;47.980;7.830;2024-01-10T08:52:33;39.22;;;25.63;;
1685;SDS011;840;47.980;7.830;2024-01-10T08:55:01;34.50;;;23.35;;
1685;SDS011;840;47.980;7.830;2024-01-10T08:57:28;37.65;;;24.80;;
1685;SDS011;840;47.980;7.830;2024-01-10T08:59:55;35.90;;;22.80;;
1685;SDS011;840;47.980;7.830;2024-01-10T09:02:23;34.20;;;20.83;;
1685;SDS011;840;47.980;7.830;2024-01-10T09:04:52;39.80;;;25.05;;
1685;SDS011;840;47.980;7.830;2024-01-10T09:07:19;39.10;;;25.08;;
1685;SDS011;840;47.980;7.830;2024-01-10T09:09:46;39.00;;;24.05;;
1685;SDS011;840;47.980;7.830;2024-01-10T09:12:13;38.00;;;22.48;;
1685;SDS011;840;47.980;7.830;2024-01-10T09:14:39;38.22;;;24.13;;
1685;SDS011;840;47.980;7.830;2024-01-10T09:17:06;34.65;;;21.33;;
1685;SDS011;840;47.980;7.830;2024-01-10T09:19:35;41.80;;;23.77;;
1685;SDS011;840;47.980;7.830;2024-01-10T09:22:01;35.10;;;25.02;;
1685;SDS011;840;47.980;7.830;2024-01-10T09:24:29;35.38;;;22.10;;
1685;SDS011;840;47.980;7.830;2024-01-10T09:26:55;38.45;;;22.67;;
1685;SDS011;840;47.980;7.830;2024-01-10T09:29:23;34.40;;;22.92;;
1685;SDS011;840;47.980;7.830;2024-01-10T09:31:50;36.72;;;23.48;;
1685;SDS011;840;47.980;7.830;2024-01-10T09:34:17;39.22;;;28.17;;
1685;SDS011;840;47.980;7.830;2024-01-10T09:36:45;38.53;;;24.73;;
1685;SDS011;840;47.980;7.830;2024-01-10T09:39:12;39.38;;;24.65;;
1685;SDS011;840;47.980;7.830;2024-01-10T09:41:40;37.33;;;24.70;;
1685;SDS011;840;47.980;7.830;2024-01-10T09:44:12;33.50;;;22.85;;
1685;SDS011;840;47.980;7.830;2024-01-10T09:46:39;41.83;;;25.13;;
1685;SDS011;840;47.980;7.830;2024-01-10T09:49:09;37.50;;;26.20;;
1685;SDS011;840;47.980;7.830;2024-01-10T09:51:36;35.00;;;25.07;;
1685;SDS011;840;47.980;7.830;2024-01-10T09:54:05;41.63;;;26.00;;
1685;SDS011;840;47.980;7.830;2024-01-10T09:56:32;38.73;;;22.20;;
1685;SDS011;840;47.980;7.830;2024-01-10T09:58:59;40.90;;;25.20;;
1685;SDS011;840;47.980;7.830;2024-01-10T10:01:31;34.28;;;23.02;;
1685;SDS011;840;47.980;7.830;2024-01-10T10:03:58;35.97;;;23.30;;
1685;SDS011;840;47.980;7.830;2024-01-10T10:06:27;40.93;;;26.00;;
1685;SDS011;840;47.980;7.830;2024-01-10T10:08:53;40.70;;;25.17;;
1685;SDS011;840;47.980;7.830;2024-01-10T10:11:21;39.10;;;24.90;;
1685;SDS011;840;47.980;7.830;2024-01-10T10:13:48;44.70;;;26.45;;
1685;SDS011;840;47.980;7.830;2024-01-10T10:16:15;46.30;;;24.40;;
1685;SDS011;840;47.980;7.830;2024-01-10T10:18:51;39.65;;;26.10;;
1685;SDS011;840;47.980;7.830;2024-01-10T10:21:22;46.00;;;26.37;;
1685;SDS011;840;47.980;7.830;2024-01-10T10:23:57;42.03;;;24.30;;
1685;SDS011;840;47.980;7.830;2024-01-10T10:26:27;39.05;;;25.67;;
1685;SDS011;840;47.980;7.830;2024-01-10T10:28:54;31.87;;;24.60;;
1685;SDS011;840;47.980;7.830;2024-01-10T10:31:21;37.37;;;23.90;;
1685;SDS011;840;47.980;7.830;2024-01-10T10:33:50;37.25;;;22.75;;
1685;SDS011;840;47.980;7.830;2024-01-10T10:36:17;34.33;;;22.20;;
1685;SDS011;840;47.980;7.830;2024-01-10T10:38:46;40.60;;;24.67;;
1685;SDS011;840;47.980;7.830;2024-01-10T10:41:13;39.30;;;24.93;;
1685;SDS011;840;47.980;7.830;2024-01-10T10:43:41;43.27;;;24.67;;
1685;SDS011;840;47.980;7.830;2024-01-10T10:46:08;43.57;;;26.93;;
1685;SDS011;840;47.980;7.830;2024-01-10T10:48:37;36.47;;;23.40;;
1685;SDS011;840;47.980;7.830;2024-01-10T10:51:05;53.13;;;26.80;;
1685;SDS011;840;47.980;7.830;2024-01-10T10:53:34;37.90;;;25.67;;
1685;SDS011;840;47.980;7.830;2024-01-10T10:56:02;42.17;;;26.10;;
1685;SDS011;840;47.980;7.830;2024-01-10T10:58:31;37.50;;;25.33;;
1685;SDS011;840;47.980;7.830;2024-01-10T11:01:01;36.63;;;25.10;;
1685;SDS011;840;47.980;7.830;2024-01-10T11:03:30;40.77;;;23.80;;
1685;SDS011;840;47.980;7.830;2024-01-10T11:05:59;36.03;;;24.67;;
1685;SDS011;840;47.980;7.830;2024-01-10T11:08:28;41.08;;;26.58;;
1685;SDS011;840;47.980;7.830;2024-01-10T11:10:58;42.40;;;26.90;;
1685;SDS011;840;47.980;7.830;2024-01-10T11:13:27;33.40;;;22.50;;
1685;SDS011;840;47.980;7.830;2024-01-10T11:16:28;31.97;;;21.40;;
1685;SDS011;840;47.980;7.830;2024-01-10T11:22:27;32.20;;;21.13;;
1685;SDS011;840;47.980;7.830;2024-01-10T11:25:06;40.77;;;24.43;;
1685;SDS011;840;47.980;7.830;2024-01-10T11:27:33;41.17;;;22.97;;
1685;SDS011;840;47.980;7.830;2024-01-10T11:30:02;39.10;;;27.40;;
1685;SDS011;840;47.980;7.830;2024-01-10T11:32:32;40.23;;;27.17;;
1685;SDS011;840;47.980;7.830;2024-01-10T11:35:00;35.50;;;23.63;;
1685;SDS011;840;47.980;7.830;2024-01-10T11:37:38;33.53;;;22.53;;
1685;SDS011;840;47.980;7.830;2024-01-10T11:40:07;32.70;;;22.77;;
1685;SDS011;840;47.980;7.830;2024-01-10T11:42:40;37.40;;;23.00;;
1685;SDS011;840;47.980;7.830;2024-01-10T11:45:08;32.40;;;23.30;;
1685;SDS011;840;47.980;7.830;2024-01-10T11:47:38;32.13;;;22.57;;
1685;SDS011;840;47.980;7.830;2024-01-10T11:50:06;37.57;;;23.00;;
1685;SDS011;840;47.980;7.830;2024-01-10T11:52:34;30.63;;;21.97;;
1685;SDS011;840;47.980;7.830;2024-01-10T11:55:03;31.07;;;20.67;;
1685;SDS011;840;47.980;7.830;2024-01-10T11:57:32;32.73;;;20.40;;
1685;SDS011;840;47.980;7.830;2024-01-10T11:59:59;28.03;;;21.23;;
1685;SDS011;840;47.980;7.830;2024-01-10T12:02:26;34.72;;;21.77;;
1685;SDS011;840;47.980;7.830;2024-01-10T12:04:54;35.30;;;22.20;;
1685;SDS011;840;47.980;7.830;2024-01-10T12:07:21;27.83;;;20.30;;
1685;SDS011;840;47.980;7.830;2024-01-10T12:09:50;35.10;;;21.70;;
1685;SDS011;840;47.980;7.830;2024-01-10T12:12:17;40.17;;;22.57;;
1685;SDS011;840;47.980;7.830;2024-01-10T12:14:43;32.07;;;22.70;;
1685;SDS011;840;47.980;7.830;2024-01-10T12:17:11;28.57;;;20.43;;
1685;SDS011;840;47.980;7.830;2024-01-10T12:19:37;32.67;;;21.52;;
1685;SDS011;840;47.980;7.830;2024-01-10T12:22:05;31.53;;;21.10;;
1685;SDS011;840;47.980;7.830;2024-01-10T12:24:32;32.70;;;21.17;;
1685;SDS011;840;47.980;7.830;2024-01-10T12:26:59;33.83;;;25.73;;
1685;SDS011;840;47.980;7.830;2024-01-10T12:29:26;35.43;;;22.70;;
1685;SDS011;840;47.980;7.830;2024-01-10T12:31:52;30.60;;;22.30;;
1685;SDS011;840;47.980;7.830;2024-01-10T12:34:19;32.80;;;20.90;;
1685;SDS011;840;47.980;7.830;2024-01-10T12:36:47;31.97;;;18.57;;
1685;SDS011;840;47.980;7.830;2024-01-10T12:39:19;28.43;;;18.90;;
1685;SDS011;840;47.980;7.830;2024-01-10T12:41:48;27.47;;;19.17;;
1685;SDS011;840;47.980;7.830;2024-01-10T12:44:15;25.50;;;17.13;;
1685;SDS011;840;47.980;7.830;2024-01-10T12:46:49;28.40;;;19.00;;
1685;SDS011;840;47.980;7.830;2024-01-10T12:49:17;27.93;;;18.43;;
1685;SDS011;840;47.980;7.830;2024-01-10T12:51:44;31.50;;;25.02;;
1685;SDS011;840;47.980;7.830;2024-01-10T12:54:14;34.67;;;23.50;;
1685;SDS011;840;47.980;7.830;2024-01-10T12:56:42;24.00;;;18.60;;
1685;SDS011;840;47.980;7.830;2024-01-10T12:59:09;27.90;;;18.80;;
1685;SDS011;840;47.980;7.830;2024-01-10T13:01:35;26.30;;;19.70;;
1685;SDS011;840;47.980;7.830;2024-01-10T13:04:02;27.63;;;19.63;;
1685;SDS011;840;47.980;7.830;2024-01-10T13:06:39;29.73;;;19.17;;
1685;SDS011;840;47.980;7.830;2024-01-10T13:09:06;27.10;;;19.50;;
1685;SDS011;840;47.980;7.830;2024-01-10T13:11:33;27.23;;;17.73;;
1685;SDS011;840;47.980;7.830;2024-01-10T13:14:01;33.60;;;22.27;;
1685;SDS011;840;47.980;7.830;2024-01-10T13:16:27;29.20;;;18.87;;
1685;SDS011;840;47.980;7.830;2024-01-10T13:18:54;38.13;;;20.77;;
1685;SDS011;840;47.980;7.830;2024-01-10T13:21:22;24.30;;;18.70;;
1685;SDS011;840;47.980;7.830;2024-01-10T13:23:49;30.47;;;18.77;;
1685;SDS011;840;47.980;7.830;2024-01-10T13:26:16;28.80;;;20.50;;
1685;SDS011;840;47.980;7.830;2024-01-10T13:28:43;25.67;;;18.70;;
1685;SDS011;840;47.980;7.830;2024-01-10T13:31:11;35.80;;;22.33;;
1685;SDS011;840;47.980;7.830;2024-01-10T13:33:37;29.20;;;19.27;;
1685;SDS011;840;47.980;7.830;2024-01-10T13:36:04;24.83;;;18.47;;
1685;SDS011;840;47.980;7.830;2024-01-10T13:38:31;27.87;;;19.40;;
1685;SDS011;840;47.980;7.830;2024-01-10T13:40:58;24.80;;;19.77;;
1685;SDS011;840;47.980;7.830;2024-01-10T13:43:26;29.60;;;19.63;;
1685;SDS011;840;47.980;7.830;2024-01-10T13:45:53;27.63;;;18.83;;
1685;SDS011;840;47.980;7.830;2024-01-10T13:48:21;29.60;;;18.60;;
1685;SDS011;840;47.980;7.830;2024-01-10T13:50:48;28.73;;;20.20;;
1685;SDS011;840;47.980;7.830;2024-01-10T13:53:15;26.53;;;18.60;;
1685;SDS011;840;47.980;7.830;2024-01-10T13:55:42;32.93;;;18.87;;
1685;SDS011;840;47.980;7.830;2024-01-10T13:58:09;25.57;;;18.47;;
1685;SDS011;840;47.980;7.830;2024-01-10T14:00:36;25.83;;;18.50;;
1685;SDS011;840;47.980;7.830;2024-01-10T14:03:03;28.77;;;20.73;;
1685;SDS011;840;47.980;7.830;2024-01-10T14:05:31;29.23;;;20.60;;
1685;SDS011;840;47.980;7.830;2024-01-10T14:07:58;24.43;;;19.37;;
1685;SDS011;840;47.980;7.830;2024-01-10T14:10:25;28.43;;;19.60;;
1685;SDS011;840;47.980;7.830;2024-01-10T14:12:51;27.13;;;19.37;;
1685;SDS011;840;47.980;7.830;2024-01-10T14:15:18;30.13;;;18.60;;
1685;SDS011;840;47.980;7.830;2024-01-10T14:17:45;27.97;;;19.47;;
1685;SDS011;840;47.980;7.830;2024-01-10T14:20:12;25.40;;;20.20;;
1685;SDS011;840;47.980;7.830;2024-01-10T14:22:40;29.20;;;20.77;;
1685;SDS011;840;47.980;7.830;2024-01-10T14:25:08;25.90;;;18.70;;
1685;SDS011;840;47.980;7.830;2024-01-10T14:27:35;21.90;;;19.60;;
1685;SDS011;840;47.980;7.830;2024-01-10T14:30:03;26.30;;;18.87;;
1685;SDS011;840;47.980;7.830;2024-01-10T14:32:33;29.17;;;18.40;;
1685;SDS011;840;47.980;7.830;2024-01-10T14:35:00;23.80;;;18.20;;
1685;SDS011;840;47.980;7.830;2024-01-10T14:37:26;28.90;;;18.77;;
1685;SDS011;840;47.980;7.830;2024-01-10T14:39:55;24.27;;;19.03;;
1685;SDS011;840;47.980;7.830;2024-01-10T14:42:23;27.67;;;20.17;;
1685;SDS011;840;47.980;7.830;2024-01-10T14:44:49;23.30;;;19.10;;
1685;SDS011;840;47.980;7.830;2024-01-10T14:47:16;26.93;;;19.40;;
1685;SDS011;840;47.980;7.830;2024-01-10T14:49:43;26.20;;;17.13;;
1685;SDS011;840;47.980;7.830;2024-01-10T14:52:10;27.10;;;20.30;;
1685;SDS011;840;47.980;7.830;2024-01-10T14:54:37;31.33;;;18.10;;
1685;SDS011;840;47.980;7.830;2024-01-10T14:57:05;32.23;;;19.53;;
1685;SDS011;840;47.980;7.830;2024-01-10T14:59:32;29.60;;;19.80;;
1685;SDS011;840;47.980;7.830;2024-01-10T15:01:59;26.03;;;17.70;;
1685;SDS011;840;47.980;7.830;2024-01-10T15:04:26;28.23;;;19.00;;
1685;SDS011;840;47.980;7.830;2024-01-10T15:06:53;24.80;;;18.17;;